Have a Safe July 4th! 

Flight Track Log - Related Links

Times and Time Zones

All times are in EDT time to prevent confusion due to time zone crossing. See the N544PS flight status page for this flight to view local times or setup timezone preferences in your user account.

Time Position Orientation Groundspeed Altitude Reporting Facility
EDT Latitude Longitude Course Direction KTS MPH feet Rate Location/Type
Fri 10:18:33 PM 44.5181 -119.9719 291° West 249 287 8,800  Level Seattle Center
Fri 10:19:34 PM 44.5464 -120.0750 291° West 272 313 11,600 2,656 Climbing Seattle Center
Fri 10:20:35 PM 44.5769 -120.1864 291° West 296 341 14,200 2,459 Climbing Seattle Center
Fri 10:21:36 PM 44.6089 -120.3014 291° West 312 359 16,600 1,918 Climbing Seattle Center
Fri 10:22:37 PM 44.6408 -120.4158 291° West 314 361 18,100 1,475 Climbing Seattle Center
Fri 10:23:38 PM 44.6717 -120.5328 290° West 317 365 19,600 885 Climbing Seattle Center
Fri 10:24:39 PM 44.7042 -120.6553 291° West 327 376 19,900 197 Climbing Seattle Center
Fri 10:25:40 PM 44.7383 -120.7831 291° West 343 395 20,000 49 Climbing Seattle Center
Fri 10:26:41 PM 44.7736 -120.9136 291° West 353 406 20,000  Level Seattle Center
Fri 10:27:42 PM 44.8075 -121.0425 290° West 353 406 20,000  Level Seattle Center
Fri 10:28:43 PM 44.8422 -121.1731 291° West 357 411 20,000  Level Seattle Center
Fri 10:29:44 PM 44.8547 -121.3131 277° West 364 419 20,000  Level Seattle Center
Fri 10:30:45 PM 44.8639 -121.4794 275° West 357 411 20,000 -541 Level Seattle Center
Fri 10:31:46 PM 44.8733 -121.6181 276° West 357 411 18,900 -1,574 Descending Seattle Center
Fri 10:32:47 PM 44.8814 -121.7450 275° West 328 377 16,800 -2,213 Descending Seattle Center
Fri 10:33:48 PM 44.8889 -121.8758 275° West 336 387 14,400 -2,361 Descending Seattle Center
Fri 10:34:49 PM 44.8997 -121.9983 277° West 325 374 12,000 -2,361 Descending Seattle Center
Fri 10:35:50 PM 44.9069 -122.1156 275° West 309 356 9,600 -1,918 Descending Seattle Center
Fri 10:36:51 PM 44.9122 -122.2236 274° West 284 327 8,100 -836 Descending Seattle Center
Fri 10:37:52 PM 44.9300 -122.3197 285° West 265 305 7,900 -443 Descending Seattle Center
Fri 10:38:53 PM 44.9819 -122.3911 316° Northwest 259 298 7,200 -836 Descending Seattle Center
Fri 10:39:54 PM 45.0344 -122.4644 315° West 267 307 6,200 -1,082 Descending Seattle Center
Fri 10:40:55 PM 45.0844 -122.5369 314° West 262 302 5,000 -689 Descending Seattle Center
Fri 10:41:56 PM 45.1342 -122.6072 315° West 260 299 4,800 -197 Descending Seattle Center

Login

Don't have an account? Register now (free) for customized features, flight alerts, and more!